createdAt,value
2023-05-04T00:03:15.559Z,7.80
2023-05-04T00:07:18.444Z,8.13
2023-05-04T00:11:18.640Z,7.50
2023-05-04T00:15:18.945Z,7.40
2023-05-04T00:19:19.704Z,7.53
2023-05-04T00:23:22.486Z,7.73
2023-05-04T00:27:22.776Z,7.20
2023-05-04T00:31:23.092Z,7.50
2023-05-04T00:35:23.310Z,8.43
2023-05-04T00:39:26.406Z,7.97
2023-05-04T00:43:26.538Z,7.10
2023-05-04T00:47:27.694Z,8.30
2023-05-04T00:51:29.237Z,8.97
2023-05-04T00:55:32.775Z,10.17
2023-05-04T00:59:33.578Z,10.10
2023-05-04T01:03:35.627Z,12.67
2023-05-04T01:07:46.036Z,11.10
2023-05-04T01:12:01.437Z,13.03
2023-05-04T01:16:02.666Z,12.60
2023-05-04T01:20:04.366Z,13.87
2023-05-04T01:24:08.878Z,14.80
2023-05-04T01:28:16.850Z,12.53
2023-05-04T01:32:20.479Z,11.20
2023-05-04T01:36:21.920Z,11.07
2023-05-04T01:40:24.936Z,10.03
2023-05-04T01:44:25.187Z,9.77
2023-05-04T01:48:26.075Z,9.63
2023-05-04T01:52:27.404Z,8.80
2023-05-04T01:56:30.205Z,9.17
2023-05-04T02:00:31.066Z,8.83
2023-05-04T02:04:34.462Z,8.20
2023-05-04T02:08:35.566Z,8.00
2023-05-04T02:12:38.406Z,8.67
2023-05-04T02:16:38.672Z,8.20
2023-05-04T02:20:38.880Z,8.70
2023-05-04T02:24:41.026Z,8.20
2023-05-04T02:28:43.841Z,7.70
2023-05-04T02:32:44.218Z,8.73
2023-05-04T02:36:44.394Z,7.97
2023-05-04T02:40:45.119Z,8.27
2023-05-04T02:44:48.010Z,8.40
2023-05-04T02:48:48.396Z,8.23
2023-05-04T02:52:48.742Z,8.97
2023-05-04T02:56:48.989Z,8.57
2023-05-04T03:00:56.446Z,8.47
2023-05-04T03:04:56.711Z,9.87
2023-05-04T03:08:59.720Z,9.30
2023-05-04T03:13:04.029Z,9.40
2023-05-04T03:17:06.986Z,9.40
2023-05-04T03:21:07.573Z,11.93
2023-05-04T03:25:10.717Z,10.83
2023-05-04T03:29:10.976Z,10.27
2023-05-04T03:33:16.966Z,9.90
2023-05-04T03:37:17.639Z,9.87
2023-05-04T03:41:17.937Z,9.97
2023-05-04T03:45:18.367Z,10.87
2023-05-04T03:49:21.325Z,9.93
2023-05-04T03:53:21.604Z,8.53
2023-05-04T03:57:22.596Z,9.17
2023-05-04T04:01:23.924Z,8.03
2023-05-04T04:05:26.886Z,8.57
2023-05-04T04:09:29.085Z,8.73
2023-05-04T04:13:30.574Z,8.90
2023-05-04T04:17:31.656Z,8.70
2023-05-04T04:21:34.489Z,9.43
2023-05-04T04:25:34.764Z,9.10
2023-05-04T04:29:35.814Z,8.47
2023-05-04T04:33:36.468Z,8.30
2023-05-04T04:37:39.249Z,8.07
2023-05-04T04:41:39.738Z,8.40
2023-05-04T04:45:41.440Z,9.23
2023-05-04T04:49:41.788Z,8.80
2023-05-04T04:53:44.484Z,8.50
2023-05-04T04:57:45.221Z,8.80
2023-05-04T05:01:45.561Z,8.57
2023-05-04T05:05:45.866Z,9.87
2023-05-04T05:09:48.758Z,8.07
2023-05-04T05:13:49.278Z,9.23
2023-05-04T05:17:49.598Z,8.50
2023-05-04T05:21:49.964Z,8.90
2023-05-04T05:25:53.457Z,9.00
2023-05-04T05:29:54.581Z,8.83
2023-05-04T05:33:55.976Z,8.60
2023-05-04T05:37:56.172Z,8.17
2023-05-04T05:42:02.085Z,8.33
2023-05-04T05:46:02.297Z,9.30
2023-05-04T05:50:02.834Z,8.73
2023-05-04T05:54:03.186Z,7.93
2023-05-04T05:58:06.097Z,8.00
2023-05-04T06:02:06.673Z,8.57
2023-05-04T06:06:07.206Z,8.80
2023-05-04T06:10:09.043Z,7.60
2023-05-04T06:14:12.248Z,6.93
2023-05-04T06:18:12.514Z,7.03
2023-05-04T06:22:12.736Z,6.47
2023-05-04T06:26:13.547Z,6.20
2023-05-04T06:30:18.800Z,6.50
2023-05-04T06:34:19.939Z,6.47
2023-05-04T06:38:20.202Z,5.80
2023-05-04T06:42:20.409Z,6.17
2023-05-04T06:46:25.561Z,6.13
2023-05-04T06:50:27.030Z,5.50
2023-05-04T06:54:27.759Z,6.07
2023-05-04T06:58:28.061Z,6.67
2023-05-04T07:02:30.989Z,7.43
2023-05-04T07:06:32.371Z,7.57
2023-05-04T07:10:32.955Z,7.03
2023-05-04T07:14:33.295Z,7.80
2023-05-04T07:18:36.290Z,7.10
2023-05-04T07:22:37.544Z,8.67
2023-05-04T07:26:37.729Z,9.43
2023-05-04T07:30:37.943Z,9.60
2023-05-04T07:34:45.529Z,10.67
2023-05-04T07:38:47.732Z,12.53
2023-05-04T07:42:47.968Z,8.13
2023-05-04T07:46:48.612Z,8.70
2023-05-04T07:50:51.562Z,11.50
2023-05-04T07:54:55.447Z,9.57
2023-05-04T07:58:56.296Z,9.15
2023-05-04T08:02:57.065Z,7.57
2023-05-04T08:06:59.905Z,7.18
2023-05-04T08:11:15.821Z,6.45
2023-05-04T08:15:17.175Z,5.80
2023-05-04T08:19:17.455Z,6.22
2023-05-04T08:23:20.232Z,5.93
2023-05-04T08:27:20.421Z,6.20
2023-05-04T08:31:21.627Z,5.80
2023-05-04T08:35:23.955Z,5.95
2023-05-04T08:39:27.059Z,5.13
2023-05-04T08:43:27.495Z,5.35
2023-05-04T08:47:29.311Z,5.28
2023-05-04T08:51:30.262Z,5.55
2023-05-04T08:55:36.440Z,5.18
2023-05-04T08:59:37.567Z,4.13
2023-05-04T09:03:38.556Z,4.65
2023-05-04T09:07:39.036Z,5.00
2023-05-04T09:11:41.927Z,4.60
2023-05-04T09:15:42.552Z,3.78
2023-05-04T09:19:44.324Z,4.28
2023-05-04T09:23:52.647Z,3.58
2023-05-04T09:27:58.731Z,4.70
2023-05-04T09:31:58.999Z,4.55
2023-05-04T09:35:59.821Z,4.15
2023-05-04T09:40:02.581Z,4.13
2023-05-04T09:44:05.968Z,4.10
2023-05-04T09:48:17.916Z,4.10
2023-05-04T09:52:18.581Z,4.80
2023-05-04T09:56:35.500Z,4.05
2023-05-04T10:00:39.691Z,4.80
2023-05-04T10:04:40.588Z,4.50
2023-05-04T10:08:41.588Z,5.30
2023-05-04T10:12:43.122Z,4.85
2023-05-04T10:17:00.049Z,4.00
2023-05-04T10:21:26.193Z,3.88
2023-05-04T10:26:06.160Z,4.35
2023-05-04T10:30:07.901Z,4.53
2023-05-04T10:34:12.573Z,4.47
2023-05-04T10:38:14.863Z,4.57
2023-05-04T10:42:15.088Z,4.35
2023-05-04T10:46:22.942Z,3.70
2023-05-04T10:50:25.850Z,4.10
2023-05-04T10:54:26.097Z,4.22
2023-05-04T10:58:32.459Z,3.75
2023-05-04T11:02:34.175Z,3.35
2023-05-04T11:06:38.583Z,3.10
2023-05-04T11:10:39.610Z,3.38
2023-05-04T11:14:43.413Z,3.15
2023-05-04T11:18:46.290Z,3.15
2023-05-04T11:22:50.469Z,2.78
2023-05-04T11:26:52.157Z,2.88
2023-05-04T11:30:53.729Z,3.40
2023-05-04T11:34:55.262Z,3.53
2023-05-04T11:38:59.871Z,3.30
2023-05-04T11:43:02.557Z,3.75
2023-05-04T11:47:03.449Z,3.90
2023-05-04T11:51:05.747Z,4.20
2023-05-04T11:55:11.694Z,3.78
2023-05-04T11:59:12.428Z,3.75
2023-05-04T12:03:16.461Z,4.10
2023-05-04T12:07:16.833Z,4.18
2023-05-04T12:11:25.688Z,3.90
2023-05-04T12:15:37.808Z,4.30
2023-05-04T12:19:37.947Z,3.63
2023-05-04T12:23:38.461Z,3.25
2023-05-04T12:27:44.747Z,3.40
2023-05-04T12:31:45.123Z,3.60
2023-05-04T12:35:45.452Z,2.88
2023-05-04T12:39:45.735Z,3.08
2023-05-04T12:43:49.655Z,3.28
2023-05-04T12:47:49.759Z,3.10
2023-05-04T12:51:50.570Z,3.10
2023-05-04T12:55:50.994Z,2.88
2023-05-04T12:59:53.876Z,2.90
2023-05-04T13:03:54.128Z,3.63
2023-05-04T13:07:56.307Z,3.97
2023-05-04T13:11:56.644Z,3.17
2023-05-04T13:16:00.104Z,2.85
2023-05-04T13:20:00.394Z,2.80
2023-05-04T13:24:00.612Z,3.20
2023-05-04T13:28:00.928Z,2.65
2023-05-04T13:32:04.212Z,2.95
2023-05-04T13:36:04.748Z,2.92
2023-05-04T13:40:04.996Z,3.20
2023-05-04T13:44:05.278Z,3.10
2023-05-04T13:48:08.386Z,3.00
2023-05-04T13:52:09.448Z,2.83
2023-05-04T13:56:10.045Z,3.40
2023-05-04T14:00:13.137Z,2.80
2023-05-04T14:04:16.681Z,3.20
2023-05-04T14:08:17.303Z,3.28
2023-05-04T14:12:19.816Z,3.03
2023-05-04T14:16:20.389Z,3.17
2023-05-04T14:20:23.551Z,4.25
2023-05-04T14:24:23.902Z,3.78
2023-05-04T14:28:24.105Z,3.10
2023-05-04T14:32:24.554Z,2.90
2023-05-04T14:36:27.384Z,3.03
2023-05-04T14:40:28.100Z,3.40
2023-05-04T14:44:30.071Z,3.60
2023-05-04T14:48:30.822Z,3.15
2023-05-04T14:52:34.228Z,3.65
2023-05-04T14:56:34.426Z,3.50
2023-05-04T15:00:34.717Z,3.45
2023-05-04T15:04:35.224Z,3.60
2023-05-04T15:08:38.023Z,3.33
2023-05-04T15:12:39.727Z,4.20
2023-05-04T15:16:39.999Z,3.95
2023-05-04T15:20:41.194Z,3.50
2023-05-04T15:24:44.151Z,3.20
2023-05-04T15:28:44.868Z,3.90
2023-05-04T15:32:45.479Z,3.70
2023-05-04T15:36:46.217Z,3.50
2023-05-04T15:40:49.034Z,3.90
2023-05-04T15:44:49.393Z,3.58
2023-05-04T15:48:50.882Z,3.60
2023-05-04T15:52:51.159Z,3.42
2023-05-04T15:56:54.353Z,4.00
2023-05-04T16:00:54.763Z,4.13
2023-05-04T16:04:55.421Z,3.35
2023-05-04T16:08:55.689Z,3.10
2023-05-04T16:13:04.176Z,3.33
2023-05-04T16:17:04.974Z,3.60
2023-05-04T16:21:05.308Z,3.63
2023-05-04T16:25:05.488Z,3.60
2023-05-04T16:29:08.371Z,4.85
2023-05-04T16:33:08.704Z,3.47
2023-05-04T16:37:10.886Z,3.88
2023-05-04T16:41:11.610Z,3.45
2023-05-04T16:45:16.372Z,3.40
2023-05-04T16:49:16.936Z,3.55
2023-05-04T16:53:17.214Z,3.38
2023-05-04T16:57:17.471Z,3.53
2023-05-04T17:01:20.811Z,3.50
2023-05-04T17:05:21.718Z,3.40
2023-05-04T17:09:22.002Z,3.55
2023-05-04T17:13:22.321Z,2.75
2023-05-04T17:17:26.295Z,2.80
2023-05-04T17:21:26.526Z,2.83
2023-05-04T17:25:27.564Z,3.00
2023-05-04T17:29:27.911Z,2.92
2023-05-04T17:33:30.840Z,3.63
2023-05-04T17:37:31.320Z,3.80
2023-05-04T17:41:31.668Z,3.42
2023-05-04T17:45:32.057Z,3.00
2023-05-04T17:49:35.052Z,3.00
2023-05-04T17:53:35.563Z,3.13
2023-05-04T17:57:35.943Z,2.90
2023-05-04T18:01:36.267Z,3.20
2023-05-04T18:05:39.284Z,3.60
2023-05-04T18:09:39.526Z,3.85
2023-05-04T18:13:39.894Z,3.10
2023-05-04T18:17:40.774Z,3.75
2023-05-04T18:21:43.734Z,4.43
2023-05-04T18:25:44.501Z,3.40
2023-05-04T18:29:46.036Z,3.10
2023-05-04T18:33:46.586Z,3.17
2023-05-04T18:37:49.800Z,3.75
2023-05-04T18:41:50.524Z,4.28
2023-05-04T18:45:50.948Z,3.63
2023-05-04T18:49:54.706Z,4.53
2023-05-04T18:53:57.932Z,4.72
2023-05-04T18:57:58.528Z,4.13
2023-05-04T19:01:58.864Z,5.00
2023-05-04T19:05:59.621Z,4.90
2023-05-04T19:10:06.634Z,6.63
2023-05-04T19:14:08.811Z,8.32
2023-05-04T19:22:41.779Z,4.82
2023-05-04T19:26:44.818Z,4.60
2023-05-04T19:30:46.360Z,4.10
2023-05-04T19:34:46.774Z,3.72
2023-05-04T19:38:50.103Z,4.35
2023-05-04T19:42:53.417Z,4.10
2023-05-04T19:46:53.837Z,4.88
2023-05-04T19:50:54.299Z,5.65
2023-05-04T19:54:57.386Z,4.85
2023-05-04T19:59:02.812Z,4.93
2023-05-04T20:03:03.478Z,5.38
2023-05-04T20:07:04.334Z,4.70
2023-05-04T20:11:06.250Z,5.45
2023-05-04T20:15:10.147Z,5.13
2023-05-04T20:19:12.262Z,5.25
2023-05-04T20:23:15.331Z,6.50
2023-05-04T20:27:15.894Z,6.28
2023-05-04T20:31:56.182Z,6.00
2023-05-04T20:35:54.429Z,5.60
2023-05-04T20:40:12.362Z,5.97
2023-05-04T20:44:15.410Z,6.78
2023-05-04T20:48:18.324Z,7.87
2023-05-04T20:52:18.603Z,7.57
2023-05-04T20:56:19.034Z,6.28
2023-05-04T21:00:20.278Z,6.63
2023-05-04T21:04:23.073Z,6.83
2023-05-04T21:08:23.234Z,5.70
2023-05-04T21:12:23.650Z,5.60
2023-05-04T21:16:25.176Z,6.50
2023-05-04T21:20:28.282Z,7.57
2023-05-04T21:24:28.563Z,11.87
2023-05-04T21:28:28.905Z,10.63
2023-05-04T21:32:29.254Z,12.63
2023-05-04T21:36:32.300Z,15.23
2023-05-04T21:40:32.532Z,10.03
2023-05-04T21:44:32.763Z,7.17
2023-05-04T21:48:33.779Z,7.30
2023-05-04T21:52:36.614Z,6.10
2023-05-04T21:56:36.820Z,6.30
2023-05-04T22:00:36.959Z,5.43
2023-05-04T22:04:37.393Z,4.77
2023-05-04T22:08:40.354Z,4.93
2023-05-04T22:12:41.140Z,5.40
2023-05-04T22:16:41.516Z,5.43
2023-05-04T22:20:42.581Z,5.53
2023-05-04T22:24:45.726Z,6.90
2023-05-04T22:28:46.538Z,7.30
2023-05-04T22:32:47.291Z,5.83
2023-05-04T22:36:47.576Z,6.47
2023-05-04T22:40:50.429Z,6.20
2023-05-04T22:44:50.786Z,6.60
2023-05-04T22:48:51.816Z,5.27
2023-05-04T22:52:52.132Z,5.77
2023-05-04T22:56:55.902Z,5.73
2023-05-04T23:00:56.048Z,6.67
2023-05-04T23:04:57.224Z,6.40
2023-05-04T23:08:57.448Z,6.80
2023-05-04T23:13:00.222Z,6.60
2023-05-04T23:17:00.375Z,6.57
2023-05-04T23:21:00.602Z,6.23
2023-05-04T23:25:00.926Z,5.97
2023-05-04T23:29:03.775Z,6.60
2023-05-04T23:33:03.978Z,5.63
2023-05-04T23:37:04.279Z,6.43
2023-05-04T23:41:06.202Z,6.00
2023-05-04T23:45:10.726Z,5.63
2023-05-04T23:49:10.889Z,5.57
2023-05-04T23:53:10.993Z,5.13
2023-05-04T23:57:11.612Z,5.30
